createdAt,value
2024-03-10T00:00:16.549Z,100.00
2024-03-10T00:05:40.524Z,100.00
2024-03-10T00:11:07.661Z,100.00
2024-03-10T00:16:30.664Z,100.00
2024-03-10T00:21:55.329Z,100.00
2024-03-10T00:27:19.623Z,100.00
2024-03-10T00:32:43.049Z,100.00
2024-03-10T00:38:06.505Z,100.00
2024-03-10T00:43:31.055Z,100.00
2024-03-10T00:48:56.359Z,100.00
2024-03-10T00:54:19.513Z,100.00
2024-03-10T00:59:44.325Z,100.00
2024-03-10T01:05:08.451Z,100.00
2024-03-10T01:10:32.818Z,100.00
2024-03-10T01:15:57.334Z,100.00
2024-03-10T01:21:22.308Z,100.00
2024-03-10T01:26:45.513Z,100.00
2024-03-10T01:32:10.237Z,100.00
2024-03-10T01:37:33.306Z,100.00
2024-03-10T01:42:56.719Z,100.00
2024-03-10T01:48:21.654Z,100.00
2024-03-10T01:53:44.723Z,100.00
2024-03-10T01:59:10.410Z,100.00
2024-03-10T02:04:38.275Z,100.00
2024-03-10T02:10:02.346Z,100.00
2024-03-10T02:15:25.714Z,100.00
2024-03-10T02:20:50.071Z,100.00
2024-03-10T02:26:16.715Z,100.00
2024-03-10T02:31:57.388Z,100.00
2024-03-10T02:37:38.266Z,100.00
2024-03-10T02:43:20.384Z,100.00
2024-03-10T02:48:46.212Z,100.00
2024-03-10T02:54:09.337Z,100.00
2024-03-10T02:59:33.660Z,100.00
2024-03-10T03:04:59.686Z,100.00
2024-03-10T03:10:23.285Z,100.00
2024-03-10T03:15:47.682Z,100.00
2024-03-10T03:21:13.365Z,100.00
2024-03-10T03:26:37.757Z,100.00
2024-03-10T03:32:02.547Z,100.00
2024-03-10T03:37:25.457Z,100.00
2024-03-10T03:42:48.500Z,100.00
2024-03-10T03:48:13.249Z,100.00
2024-03-10T03:53:37.099Z,100.00
2024-03-10T03:59:01.605Z,100.00
2024-03-10T04:04:27.200Z,100.00
2024-03-10T04:09:50.226Z,100.00
2024-03-10T04:15:14.203Z,100.00
2024-03-10T04:20:43.002Z,100.00
2024-03-10T04:26:10.577Z,100.00
2024-03-10T04:31:33.967Z,100.00
2024-03-10T04:36:58.519Z,100.00
2024-03-10T04:42:21.679Z,100.00
2024-03-10T04:47:45.022Z,100.00
2024-03-10T04:53:12.696Z,100.00
2024-03-10T04:58:36.086Z,100.00
2024-03-10T05:04:02.115Z,100.00
2024-03-10T05:09:26.581Z,100.00
2024-03-10T05:14:50.775Z,100.00
2024-03-10T05:20:18.729Z,100.00
2024-03-10T05:25:43.358Z,100.00
2024-03-10T05:31:06.590Z,100.00
2024-03-10T05:36:29.895Z,100.00
2024-03-10T05:41:55.451Z,100.00
2024-03-10T05:47:19.241Z,100.00
2024-03-10T05:52:43.522Z,100.00
2024-03-10T05:58:13.694Z,100.00
2024-03-10T06:03:36.966Z,100.00
2024-03-10T06:09:01.204Z,97.18
2024-03-10T06:14:31.336Z,95.87
2024-03-10T06:20:13.865Z,95.61
2024-03-10T06:25:36.917Z,94.67
2024-03-10T06:31:03.456Z,93.52
2024-03-10T06:36:28.513Z,92.68
2024-03-10T06:41:52.095Z,91.87
2024-03-10T06:47:16.726Z,91.81
2024-03-10T06:52:46.581Z,92.21
2024-03-10T06:58:09.970Z,91.44
2024-03-10T07:03:37.314Z,90.11
2024-03-10T07:09:00.689Z,90.38
2024-03-10T07:14:23.860Z,89.59
2024-03-10T07:19:48.658Z,88.64
2024-03-10T07:25:15.897Z,91.67
2024-03-10T07:30:39.076Z,91.50
2024-03-10T07:36:03.567Z,91.24
2024-03-10T07:41:27.295Z,90.18
2024-03-10T07:46:50.387Z,88.96
2024-03-10T07:52:15.570Z,88.82
2024-03-10T07:57:40.876Z,87.55
2024-03-10T08:03:04.356Z,87.69
2024-03-10T08:08:29.279Z,85.92
2024-03-10T08:13:52.702Z,88.06
2024-03-10T08:19:18.230Z,88.96
2024-03-10T08:24:42.796Z,88.11
2024-03-10T08:30:10.323Z,88.07
2024-03-10T08:35:33.940Z,88.03
2024-03-10T08:41:00.080Z,87.34
2024-03-10T08:46:24.400Z,87.00
2024-03-10T08:51:47.948Z,87.90
2024-03-10T08:57:13.895Z,99.33
2024-03-10T09:02:43.270Z,100.00
2024-03-10T09:08:12.932Z,100.00
2024-03-10T09:13:39.257Z,100.00
2024-03-10T09:19:02.531Z,100.00
2024-03-10T09:24:25.721Z,100.00
2024-03-10T09:29:58.205Z,100.00
2024-03-10T09:35:25.940Z,100.00
2024-03-10T09:40:50.189Z,99.71
2024-03-10T09:46:15.205Z,97.01
2024-03-10T09:51:39.796Z,97.51
2024-03-10T09:57:07.197Z,96.32
2024-03-10T10:02:36.290Z,95.83
2024-03-10T10:07:59.765Z,93.04
2024-03-10T10:13:23.944Z,91.41
2024-03-10T10:18:54.616Z,93.30
2024-03-10T10:24:22.992Z,92.00
2024-03-10T10:29:50.539Z,92.14
2024-03-10T10:35:17.444Z,89.40
2024-03-10T10:40:41.283Z,90.79
2024-03-10T10:46:05.500Z,90.25
2024-03-10T10:51:30.295Z,91.36
2024-03-10T10:56:55.669Z,88.71
2024-03-10T11:02:21.045Z,87.35
2024-03-10T11:07:46.941Z,87.09
2024-03-10T11:13:12.015Z,83.30
2024-03-10T11:18:37.054Z,83.43
2024-03-10T11:24:02.160Z,84.42
2024-03-10T11:29:28.204Z,83.96
2024-03-10T11:34:52.518Z,73.30
2024-03-10T11:40:17.726Z,71.91
2024-03-10T11:45:41.764Z,71.02
2024-03-10T11:51:06.346Z,78.17
2024-03-10T11:56:33.452Z,74.37
2024-03-10T12:01:58.489Z,67.67
2024-03-10T12:07:26.718Z,63.76
2024-03-10T12:12:53.347Z,58.70
2024-03-10T12:18:18.237Z,58.14
2024-03-10T12:23:43.313Z,59.64
2024-03-10T12:29:10.014Z,61.94
2024-03-10T12:34:33.211Z,66.12
2024-03-10T12:39:57.360Z,68.47
2024-03-10T12:45:24.284Z,64.87
2024-03-10T12:50:50.398Z,67.56
2024-03-10T12:56:14.625Z,68.02
2024-03-10T13:01:39.207Z,66.52
2024-03-10T13:07:02.216Z,68.23
2024-03-10T13:12:25.408Z,68.85
2024-03-10T13:17:50.207Z,67.72
2024-03-10T13:23:14.508Z,67.65
2024-03-10T13:28:37.628Z,66.91
2024-03-10T13:34:02.749Z,68.17
2024-03-10T13:39:28.973Z,71.25
2024-03-10T13:44:53.849Z,72.76
2024-03-10T13:50:20.833Z,73.65
2024-03-10T13:55:45.378Z,75.09
2024-03-10T14:01:08.576Z,75.43
2024-03-10T14:06:33.456Z,74.20
2024-03-10T14:11:57.461Z,75.88
2024-03-10T14:17:20.645Z,77.24
2024-03-10T14:22:46.865Z,76.50
2024-03-10T14:28:09.930Z,77.29
2024-03-10T14:33:34.426Z,77.65
2024-03-10T14:38:58.876Z,78.59
2024-03-10T14:44:22.720Z,79.76
2024-03-10T14:49:48.587Z,79.98
2024-03-10T14:55:16.355Z,80.08
2024-03-10T15:00:42.062Z,80.42
2024-03-10T15:06:06.852Z,78.59
2024-03-10T15:11:32.170Z,79.09
2024-03-10T15:16:55.670Z,81.51
2024-03-10T15:22:19.235Z,83.11
2024-03-10T15:27:43.597Z,81.40
2024-03-10T15:33:06.812Z,81.91
2024-03-10T15:38:30.205Z,82.24
2024-03-10T15:43:55.899Z,81.42
2024-03-10T15:49:19.039Z,82.42
2024-03-10T15:54:42.251Z,81.46
2024-03-10T16:00:08.434Z,81.41
2024-03-10T16:05:38.816Z,80.96
2024-03-10T16:11:02.070Z,80.16
2024-03-10T16:16:26.625Z,79.54
2024-03-10T16:21:52.653Z,79.88
2024-03-10T16:27:16.944Z,80.45
2024-03-10T16:32:41.629Z,80.19
2024-03-10T16:38:07.665Z,79.92
2024-03-10T16:43:30.700Z,80.23
2024-03-10T16:48:55.290Z,79.30
2024-03-10T16:54:18.160Z,80.09
2024-03-10T16:59:42.411Z,78.70
2024-03-10T17:05:07.233Z,80.08
2024-03-10T17:10:31.028Z,80.74
2024-03-10T17:15:54.269Z,80.47
2024-03-10T17:21:18.846Z,81.11
2024-03-10T17:26:43.147Z,81.27
2024-03-10T17:32:07.418Z,79.17
2024-03-10T17:37:32.142Z,79.90
2024-03-10T17:42:56.439Z,79.46
2024-03-10T17:48:20.060Z,82.26
2024-03-10T17:53:46.253Z,83.14
2024-03-10T17:59:09.295Z,84.25
2024-03-10T18:04:35.122Z,82.72
2024-03-10T18:10:00.325Z,82.95
2024-03-10T18:15:25.765Z,84.84
2024-03-10T18:20:50.124Z,84.41
2024-03-10T18:26:14.920Z,81.21
2024-03-10T18:31:38.693Z,82.04
2024-03-10T18:37:01.872Z,85.46
2024-03-10T18:42:26.249Z,87.16
2024-03-10T18:47:49.400Z,83.45
2024-03-10T18:53:12.434Z,84.64
2024-03-10T18:58:36.762Z,85.15
2024-03-10T19:04:00.885Z,85.88
2024-03-10T19:09:24.320Z,84.83
2024-03-10T19:14:48.704Z,86.63
2024-03-10T19:20:22.406Z,90.61
2024-03-10T19:25:48.948Z,90.82
2024-03-10T19:31:13.280Z,91.00
2024-03-10T19:36:41.333Z,87.28
2024-03-10T19:42:04.485Z,86.80
2024-03-10T19:47:28.843Z,91.59
2024-03-10T19:52:54.215Z,91.81
2024-03-10T19:58:17.652Z,92.44
2024-03-10T20:03:41.949Z,91.40
2024-03-10T20:09:06.701Z,93.26
2024-03-10T20:14:30.335Z,92.68
2024-03-10T20:19:55.428Z,89.67
2024-03-10T20:25:19.662Z,87.46
2024-03-10T20:30:42.662Z,88.71
2024-03-10T20:36:09.762Z,87.73
2024-03-10T20:41:32.703Z,87.04
2024-03-10T20:46:55.672Z,86.95
2024-03-10T20:52:20.485Z,87.09
2024-03-10T20:57:45.871Z,86.62
2024-03-10T21:03:08.781Z,87.73
2024-03-10T21:08:33.877Z,87.24
2024-03-10T21:13:56.845Z,87.62
2024-03-10T21:19:20.106Z,87.03
2024-03-10T21:24:44.378Z,89.57
2024-03-10T21:30:08.755Z,90.44
2024-03-10T21:35:31.843Z,92.14
2024-03-10T21:40:59.076Z,94.23
2024-03-10T21:46:22.614Z,96.11
2024-03-10T21:51:46.737Z,91.60
2024-03-10T21:57:11.011Z,92.04
2024-03-10T22:02:34.567Z,98.86
2024-03-10T22:07:57.846Z,100.00
2024-03-10T22:13:22.242Z,100.00
2024-03-10T22:18:45.785Z,100.00
2024-03-10T22:24:09.586Z,100.00
2024-03-10T22:29:33.846Z,100.00
2024-03-10T22:34:56.844Z,100.00
2024-03-10T22:40:21.463Z,100.00
2024-03-10T22:45:45.965Z,100.00
2024-03-10T22:51:09.078Z,100.00
2024-03-10T22:56:32.299Z,100.00
2024-03-10T23:01:56.688Z,100.00
2024-03-10T23:07:19.772Z,100.00
2024-03-10T23:12:43.357Z,100.00
2024-03-10T23:18:08.585Z,100.00
2024-03-10T23:23:34.558Z,100.00
2024-03-10T23:28:59.072Z,100.00
2024-03-10T23:34:23.306Z,100.00
2024-03-10T23:39:48.030Z,100.00
2024-03-10T23:45:13.688Z,96.91
2024-03-10T23:50:38.119Z,100.00
2024-03-10T23:56:04.259Z,100.00
